Time;durP1;ratioP1;P1;durP2;ratioP2;P2;SDS_P1;SDS_P2;PMS_P1;PMS_P2;Temp;Humidity;BMP_temperature;BMP_pressure;BME280_temperature;BME280_humidity;BME280_pressure;Samples;Min_cycle;Max_cycle;Signal;HPM_P1;HPM_P2
2023/10/10 00:00:49;;;;;;;;;;;;;;;;;;4988843;28;88992;-64
2023/10/10 00:03:14;;;;;;;;;;;;;;;;;;4988131;28;91059;-64
2023/10/10 00:05:39;;;;;;;;;;;;;;;;;;4991532;28;89375;-64
2023/10/10 00:08:10;;;;;;;;;;;;;;;;;;4987465;28;89677;-64
2023/10/10 00:10:36;;;;;;;;;;;;;;;;;;4989144;28;90146;-64
2023/10/10 00:13:01;;;;;;;;;;;;;;;;;;4988117;28;90420;-65
2023/10/10 00:15:33;;;;;;;;;;;;;;;;;;4987966;28;90745;-65
2023/10/10 00:18:06;;;;;;;;;;;;;;;;;;4986639;28;90457;-64
2023/10/10 00:20:40;;;;;;;;;;;;;;;;;;4986812;28;89949;-65
2023/10/10 00:23:10;;;;;;;;;;;;;;;;;;4986765;28;89498;-65
2023/10/10 00:25:37;;;;;;;;;;;;;;;;;;4988807;28;89768;-64
2023/10/10 00:28:06;;;;;;;;;;;;;;;;;;4990752;28;89399;-64
2023/10/10 00:30:34;;;;;;;;;;;;;;;;;;4990045;28;90344;-65
2023/10/10 00:33:05;;;;;;;;;;;;;;;;;;4988057;28;89752;-64
2023/10/10 00:35:33;;;;;;;;;;;;;;;;;;4988188;28;89629;-65
2023/10/10 00:37:59;;;;;;;;;;;;;;;;;;4987826;28;90211;-65
2023/10/10 00:40:30;;;;;;;;;;;;;;;;;;4988314;28;89203;-65
2023/10/10 00:42:59;;;;;;;;;;;;;;;;;;4987874;28;89886;-64
2023/10/10 00:45:28;;;;;;;;;;;;;;;;;;4987455;28;90466;-64
2023/10/10 00:47:54;;;;;;;;;;;;;;;;;;4987832;28;89596;-64
2023/10/10 00:50:20;;;;;;;;;;;;;;;;;;4990389;28;90423;-64
2023/10/10 00:52:48;;;;;;;;;;;;;;;;;;4988312;28;89542;-64
2023/10/10 00:55:13;;;;;;;;;;;;;;;;;;4987404;28;90714;-64
2023/10/10 00:57:40;;;;;;;;;;;;;;;;;;4987659;28;89664;-64
2023/10/10 01:00:15;;;;;;;;;;;;;;;;;;4987734;28;89485;-65
2023/10/10 01:02:42;;;;;;;;;;;;;;;;;;4988550;28;91390;-65
2023/10/10 01:05:14;;;;;;;;;;;;;;;;;;4987608;28;89723;-64
2023/10/10 01:07:39;;;;;;;;;;;;;;;;;;4987298;28;89271;-64
2023/10/10 01:10:11;;;;;;;;;;;;;;;;;;4987219;28;90217;-64
2023/10/10 01:12:39;;;;;;;;;;;;;;;;;;4988767;28;90235;-64
2023/10/10 01:15:25;;;;;;;;;;;;;;;;;;4987714;28;90479;-64
2023/10/10 01:17:51;;;;;;;;;;;;;;;;;;4986585;28;89338;-65
2023/10/10 01:20:19;;;;;;;;;;;;;;;;;;4991274;28;89636;-64
2023/10/10 01:22:48;;;;;;;;;;;;;;;;;;4989779;28;91764;-64
2023/10/10 01:28:02;;;;;;;;;;;;;;;;;;4987342;28;89830;-64
2023/10/10 01:33:14;;;;;;;;;;;;;;;;;;4990065;28;89481;-64
2023/10/10 01:35:43;;;;;;;;;;;;;;;;;;4987243;28;90589;-65
2023/10/10 01:38:14;;;;;;;;;;;;;;;;;;4987242;28;90435;-64
2023/10/10 01:40:40;;;;;;;;;;;;;;;;;;4986991;28;89333;-64
2023/10/10 01:43:10;;;;;;;;;;;;;;;;;;4985437;28;90886;-65
2023/10/10 01:45:41;;;;;;;;;;;;;;;;;;4988167;28;90404;-65
2023/10/10 01:48:08;;;;;;;;;;;;;;;;;;4987286;28;90015;-64
2023/10/10 01:50:34;;;;;;;;;;;;;;;;;;4989203;28;89446;-64
2023/10/10 01:53:00;;;;;;;;;;;;;;;;;;4987979;28;91678;-64
2023/10/10 01:55:25;;;;;;;;;;;;;;;;;;4990725;28;89864;-64
2023/10/10 01:57:51;;;;;;;;;;;;;;;;;;4986419;28;90471;-65
2023/10/10 02:00:51;;;;;;;;;;;;;;;;;;4986488;28;89866;-64
2023/10/10 02:03:07;;;;;;;;;;;;;;;;;;4983824;28;90779;-64
2023/10/10 02:05:45;;;;;;;;;;;;;;;;;;4986303;28;89170;-65
2023/10/10 02:08:17;;;;;;;;;;;;;;;;;;4983061;28;89439;-64
2023/10/10 02:10:46;;;;;;;;;;;;;;;;;;4986525;28;89569;-64
2023/10/10 02:13:11;;;;;;;;;;;;;;;;;;4986711;28;91442;-64
2023/10/10 02:15:39;;;;;;;;;;;;;;;;;;4987250;28;89942;-64
2023/10/10 02:18:05;;;;;;;;;;;;;;;;;;4988889;28;89812;-64
2023/10/10 02:20:49;;;;;;;;;;;;;;;;;;4986665;28;89799;-65
2023/10/10 02:23:31;;;;;;;;;;;;;;;;;;4982102;28;90927;-65
2023/10/10 02:26:01;;;;;;;;;;;;;;;;;;4986325;28;89941;-65
2023/10/10 02:28:43;;;;;;;;;;;;;;;;;;4987464;28;89050;-64
2023/10/10 02:31:09;;;;;;;;;;;;;;;;;;4985727;28;91176;-65
2023/10/10 02:33:37;;;;;;;;;;;;;;;;;;4986831;28;90209;-65
2023/10/10 02:36:03;;;;;;;;;;;;;;;;;;4985021;28;89517;-65
2023/10/10 02:38:32;;;;;;;;;;;;;;;;;;4986107;28;89653;-65
2023/10/10 02:41:14;;;;;;;;;;;;;;;;;;4988634;28;89623;-65
2023/10/10 02:46:28;;;;;;;;;;;;;;;;;;4986384;28;89232;-64
2023/10/10 02:48:55;;;;;;;;;;;;;;;;;;4986397;28;89769;-64
2023/10/10 02:51:21;;;;;;;;;;;;;;;;;;4986015;28;90666;-65
2023/10/10 02:53:46;;;;;;;;;;;;;;;;;;4986943;28;91728;-64
2023/10/10 02:56:18;;;;;;;;;;;;;;;;;;4985581;28;89790;-64
2023/10/10 02:58:45;;;;;;;;;;;;;;;;;;4984590;28;90948;-65
2023/10/10 03:01:25;;;;;;;;;;;;;;;;;;4984004;28;89269;-64
2023/10/10 03:03:54;;;;;;;;;;;;;;;;;;4989119;28;89423;-64
2023/10/10 03:06:28;;;;;;;;;;;;;;;;;;4985982;28;90517;-64
2023/10/10 03:09:06;;;;;;;;;;;;;;;;;;4986240;28;89103;-63
2023/10/10 03:11:52;;;;;;;;;;;;;;;;;;4983068;28;90572;-64
2023/10/10 03:14:25;;;;;;;;;;;;;;;;;;4984017;28;90196;-65
2023/10/10 03:17:05;;;;;;;;;;;;;;;;;;4985877;28;89465;-65
2023/10/10 03:19:38;;;;;;;;;;;;;;;;;;4986486;28;91139;-64
2023/10/10 03:25:03;;;;;;;;;;;;;;;;;;4988761;28;90739;-65
2023/10/10 03:30:17;;;;;;;;;;;;;;;;;;4989445;28;89220;-64
2023/10/10 03:35:51;;;;;;;;;;;;;;;;;;4988706;28;89124;-64
2023/10/10 03:38:31;;;;;;;;;;;;;;;;;;4988643;28;89120;-64
2023/10/10 05:24:43;;;;;;;;;;;;;;;;;;4986380;28;89854;-64
2023/10/10 05:27:08;;;;;;;;;;;;;;;;;;4989886;28;90247;-64
2023/10/10 05:29:33;;;;;;;;;;;;;;;;;;4993475;28;89537;-64
2023/10/10 05:31:59;;;;;;;;;;;;;;;;;;4986660;28;89225;-64
2023/10/10 05:34:25;;;;;;;;;;;;;;;;;;4987310;28;90731;-64
2023/10/10 05:36:50;;;;;;;;;;;;;;;;;;4987131;28;90862;-65
2023/10/10 05:39:20;;;;;;;;;;;;;;;;;;4983903;28;89627;-65
2023/10/10 05:41:47;;;;;;;;;;;;;;;;;;4981955;28;89660;-64
2023/10/10 05:44:16;;;;;;;;;;;;;;;;;;4984836;28;90487;-66
2023/10/10 05:46:42;;;;;;;;;;;;;;;;;;4985685;28;89415;-64
2023/10/10 05:49:08;;;;;;;;;;;;;;;;;;4994722;28;89556;-65
2023/10/10 05:51:33;;;;;;;;;;;;;;;;;;4985059;28;89649;-66
2023/10/10 05:53:58;;;;;;;;;;;;;;;;;;4984332;28;89808;-66
2023/10/10 05:56:24;;;;;;;;;;;;;;;;;;4979865;28;89810;-66
2023/10/10 05:58:49;;;;;;;;;;;;;;;;;;4983708;28;90211;-66
2023/10/10 06:01:14;;;;;;;;;;;;;;;;;;4983650;28;89684;-65
2023/10/10 06:03:41;;;;;;;;;;;;;;;;;;4980059;28;91114;-66
2023/10/10 06:06:06;;;;;;;;;;;;;;;;;;4981975;28;89590;-65
2023/10/10 06:08:32;;;;;;;;;;;;;;;;;;4984872;28;89182;-65
2023/10/10 06:10:57;;;;;;;;;;;;;;;;;;4984854;28;89379;-66
2023/10/10 06:13:23;;;;;;;;;;;;;;;;;;4984262;28;89067;-65
2023/10/10 06:15:50;;;;;;;;;;;;;;;;;;4985013;28;89953;-65
2023/10/10 06:18:15;;;;;;;;;;;;;;;;;;4985254;28;90935;-65
2023/10/10 06:20:41;;;;;;;;;;;;;;;;;;4983983;28;90069;-65
2023/10/10 06:23:07;;;;;;;;;;;;;;;;;;4984804;28;90705;-65
2023/10/10 06:25:32;;;;;;;;;;;;;;;;;;4984595;28;89530;-65
2023/10/10 06:28:00;;;;;;;;;;;;;;;;;;4985224;28;89064;-64
2023/10/10 06:30:26;;;;;;;;;;;;;;;;;;4986637;28;90743;-65
2023/10/10 06:32:51;;;;;;;;;;;;;;;;;;4983296;28;90670;-65
2023/10/10 06:37:42;;;;;;;;;;;;;;;;;;4985406;28;89758;-65
2023/10/10 06:40:08;;;;;;;;;;;;;;;;;;4984656;28;89969;-64
2023/10/10 06:42:34;;;;;;;;;;;;;;;;;;4983138;28;90593;-65
2023/10/10 06:45:10;;;;;;;;;;;;;;;;;;4999870;28;91402;-65
2023/10/10 06:47:39;;;;;;;;;;;;;;;;;;4983103;28;89854;-65
2023/10/10 06:50:10;;;;;;;;;;;;;;;;;;4983099;28;91177;-65
2023/10/10 06:52:36;;;;;;;;;;;;;;;;;;4986583;28;89702;-64
2023/10/10 06:55:10;;;;;;;;;;;;;;;;;;4981463;28;91400;-65
2023/10/10 06:57:36;;;;;;;;;;;;;;;;;;4983580;28;90798;-65
2023/10/10 07:00:20;;;;;;;;;;;;;;;;;;4984424;28;89509;-65
2023/10/10 07:02:50;;;;;;;;;;;;;;;;;;4982608;28;89508;-65
2023/10/10 07:05:15;;;;;;;;;;;;;;;;;;4984804;28;90526;-65
2023/10/10 07:07:44;;;;;;;;;;;;;;;;;;4985136;28;90416;-65
2023/10/10 07:10:25;;;;;;;;;;;;;;;;;;4983334;28;92762;-65
2023/10/10 07:12:53;;;;;;;;;;;;;;;;;;4984574;28;91060;-65
2023/10/10 07:15:21;;;;;;;;;;;;;;;;;;4985135;28;89442;-66
2023/10/10 07:17:49;;;;;;;;;;;;;;;;;;4984793;28;90286;-65
2023/10/10 07:22:41;;;;;;;;;;;;;;;;;;4984896;28;90308;-66
2023/10/10 07:25:07;;;;;;;;;;;;;;;;;;4984187;28;90387;-65
2023/10/10 07:27:35;;;;;;;;;;;;;;;;;;4984056;28;89133;-65
2023/10/10 07:30:08;;;;;;;;;;;;;;;;;;4983474;28;89492;-65
2023/10/10 07:32:35;;;;;;;;;;;;;;;;;;4983577;28;91048;-65
2023/10/10 07:35:02;;;;;;;;;;;;;;;;;;4983875;28;89771;-65
2023/10/10 07:37:29;;;;;;;;;;;;;;;;;;4987369;28;90780;-65
2023/10/10 07:39:55;;;;;;;;;;;;;;;;;;4986740;28;89690;-65
2023/10/10 07:42:30;;;;;;;;;;;;;;;;;;4985646;28;89731;-65
2023/10/10 07:44:56;;;;;;;;;;;;;;;;;;4983844;28;89159;-65
2023/10/10 07:47:25;;;;;;;;;;;;;;;;;;4983862;28;89263;-65
2023/10/10 07:49:52;;;;;;;;;;;;;;;;;;4981383;28;90726;-64
2023/10/10 07:52:20;;;;;;;;;;;;;;;;;;4984113;28;90922;-65
2023/10/10 07:54:46;;;;;;;;;;;;;;;;;;4983909;28;90266;-65
2023/10/10 07:57:17;;;;;;;;;;;;;;;;;;4983605;28;90752;-65
2023/10/10 07:59:43;;;;;;;;;;;;;;;;;;4984535;28;89522;-65
2023/10/10 08:04:57;;;;;;;;;;;;;;;;;;4984010;28;89781;-65
2023/10/10 08:07:23;;;;;;;;;;;;;;;;;;4985315;28;90681;-65
2023/10/10 08:09:49;;;;;;;;;;;;;;;;;;4987273;28;90596;-65
2023/10/10 08:12:15;;;;;;;;;;;;;;;;;;4990109;28;90231;-65
2023/10/10 08:14:41;;;;;;;;;;;;;;;;;;4987202;28;89550;-65
2023/10/10 08:17:18;;;;;;;;;;;;;;;;;;4983254;28;89776;-65
2023/10/10 08:19:53;;;;;;;;;;;;;;;;;;4990295;28;89493;-65
2023/10/10 08:22:19;;;;;;;;;;;;;;;;;;4986978;28;89982;-65
2023/10/10 08:24:44;;;;;;;;;;;;;;;;;;4984751;28;89732;-65
2023/10/10 08:27:11;;;;;;;;;;;;;;;;;;4987511;28;89546;-64
2023/10/10 08:29:37;;;;;;;;;;;;;;;;;;4988392;28;89773;-64
2023/10/10 08:32:05;;;;;;;;;;;;;;;;;;4986251;28;90279;-64
2023/10/10 08:34:31;;;;;;;;;;;;;;;;;;4987295;28;90371;-64
2023/10/10 08:37:03;;;;;;;;;;;;;;;;;;4986950;28;90433;-64
2023/10/10 08:39:35;;;;;;;;;;;;;;;;;;4987624;28;89108;-66
2023/10/10 08:42:05;;;;;;;;;;;;;;;;;;4990020;28;90165;-65
2023/10/10 08:44:35;;;;;;;;;;;;;;;;;;4983333;28;90324;-65
2023/10/10 08:47:01;;;;;;;;;;;;;;;;;;4989317;28;89288;-64
2023/10/10 08:49:27;;;;;;;;;;;;;;;;;;4987042;28;90054;-64
2023/10/10 08:51:54;;;;;;;;;;;;;;;;;;4986878;28;89429;-65
2023/10/10 08:54:20;;;;;;;;;;;;;;;;;;4985140;28;90026;-65
2023/10/10 08:57:02;;;;;;;;;;;;;;;;;;4986944;28;90090;-64
2023/10/10 08:59:28;;;;;;;;;;;;;;;;;;4986826;28;89449;-65
2023/10/10 09:02:06;;;;;;;;;;;;;;;;;;4986048;28;89311;-64
2023/10/10 09:04:31;;;;;;;;;;;;;;;;;;4988615;28;91349;-66
2023/10/10 09:09:34;;;;;;;;;;;;;;;;;;4985577;28;89797;-66
2023/10/10 09:12:03;;;;;;;;;;;;;;;;;;4985210;28;89604;-65
2023/10/10 09:14:36;;;;;;;;;;;;;;;;;;4985921;28;90943;-65
2023/10/10 09:17:06;;;;;;;;;;;;;;;;;;4984250;28;90654;-65
2023/10/10 09:19:31;;;;;;;;;;;;;;;;;;4985607;28;90779;-65
2023/10/10 09:21:59;;;;;;;;;;;;;;;;;;4985701;28;90886;-65
2023/10/10 09:24:31;;;;;;;;;;;;;;;;;;4978875;28;90738;-66
2023/10/10 09:26:58;;;;;;;;;;;;;;;;;;4988721;28;90484;-65
2023/10/10 09:29:34;;;;;;;;;;;;;;;;;;4989769;28;89421;-67
2023/10/10 09:32:00;;;;;;;;;;;;;;;;;;4985735;28;90480;-65
2023/10/10 09:34:28;;;;;;;;;;;;;;;;;;4985130;28;90289;-66
2023/10/10 09:36:57;;;;;;;;;;;;;;;;;;4983700;28;89819;-66
2023/10/10 09:39:37;;;;;;;;;;;;;;;;;;4986469;28;90488;-68
2023/10/10 09:42:44;;;;;;;;;;;;;;;;;;4986289;28;89906;-71
2023/10/10 09:45:35;;;;;;;;;;;;;;;;;;4979000;28;90398;-69
2023/10/10 09:48:06;;;;;;;;;;;;;;;;;;4983804;28;90835;-75
2023/10/10 09:50:37;;;;;;;;;;;;;;;;;;4989517;28;89917;-71
2023/10/10 09:53:06;;;;;;;;;;;;;;;;;;4983116;28;91652;-70
2023/10/10 09:58:01;;;;;;;;;;;;;;;;;;4985628;28;90182;-69
2023/10/10 10:00:45;;;;;;;;;;;;;;;;;;4982234;28;89285;-71
2023/10/10 10:06:00;;;;;;;;;;;;;;;;;;4985788;28;89558;-66
2023/10/10 10:08:38;;;;;;;;;;;;;;;;;;4985132;28;90150;-66
2023/10/10 10:11:25;;;;;;;;;;;;;;;;;;4986249;28;89708;-68
2023/10/10 10:14:17;;;;;;;;;;;;;;;;;;4986722;28;89963;-66
2023/10/10 10:16:50;;;;;;;;;;;;;;;;;;4985620;28;89471;-66
2023/10/10 10:19:17;;;;;;;;;;;;;;;;;;4985470;28;89418;-67
2023/10/10 10:21:53;;;;;;;;;;;;;;;;;;4984407;28;89713;-66
2023/10/10 10:24:32;;;;;;;;;;;;;;;;;;4985134;28;89139;-66
2023/10/10 10:27:25;;;;;;;;;;;;;;;;;;4984775;28;89877;-66
2023/10/10 10:29:56;;;;;;;;;;;;;;;;;;4983885;28;90457;-67
2023/10/10 10:32:24;;;;;;;;;;;;;;;;;;4979478;27;89847;-65
2023/10/10 10:34:56;;;;;;;;;;;;;;;;;;4987371;28;89668;-66
2023/10/10 10:37:23;;;;;;;;;;;;;;;;;;4981538;28;89913;-70
2023/10/10 10:42:46;;;;;;;;;;;;;;;;;;4983785;28;90019;-69
2023/10/10 10:45:36;;;;;;;;;;;;;;;;;;4980307;28;89717;-69
2023/10/10 10:48:30;;;;;;;;;;;;;;;;;;4985685;28;90929;-66
2023/10/10 10:51:04;;;;;;;;;;;;;;;;;;4984332;28;90171;-67
2023/10/10 10:53:38;;;;;;;;;;;;;;;;;;4984874;28;89009;-68
2023/10/10 10:59:11;;;;;;;;;;;;;;;;;;4987341;28;89594;-67
2023/10/10 11:01:38;;;;;;;;;;;;;;;;;;4982095;28;90473;-68
2023/10/10 11:04:05;;;;;;;;;;;;;;;;;;4980482;28;90073;-68
2023/10/10 11:06:30;;;;;;;;;;;;;;;;;;4981990;28;90260;-67
2023/10/10 11:09:09;;;;;;;;;;;;;;;;;;4982558;28;89511;-67
2023/10/10 11:14:01;;;;;;;;;;;;;;;;;;4983906;28;89778;-68
2023/10/10 11:16:39;;;;;;;;;;;;;;;;;;4983938;28;89663;-68
2023/10/10 11:21:48;;;;;;;;;;;;;;;;;;4986538;28;89425;-66
2023/10/10 11:24:15;;;;;;;;;;;;;;;;;;4984548;28;90362;-67
2023/10/10 11:26:43;;;;;;;;;;;;;;;;;;4983833;28;89509;-67
2023/10/10 11:29:21;;;;;;;;;;;;;;;;;;4986229;28;90075;-69
2023/10/10 11:31:48;;;;;;;;;;;;;;;;;;4984397;28;89402;-67
2023/10/10 11:34:26;;;;;;;;;;;;;;;;;;4984165;28;89775;-65
2023/10/10 11:37:11;;;;;;;;;;;;;;;;;;4982139;28;90732;-66
2023/10/10 11:39:36;;;;;;;;;;;;;;;;;;4984436;28;90196;-66
2023/10/10 11:42:04;;;;;;;;;;;;;;;;;;4987765;28;89337;-66
2023/10/10 11:44:29;;;;;;;;;;;;;;;;;;4991096;28;90235;-66
2023/10/10 11:47:02;;;;;;;;;;;;;;;;;;4989081;28;89701;-66
2023/10/10 11:49:28;;;;;;;;;;;;;;;;;;4986128;28;90612;-66
2023/10/10 11:51:54;;;;;;;;;;;;;;;;;;4987802;28;90523;-65
2023/10/10 11:54:25;;;;;;;;;;;;;;;;;;4989526;28;90287;-66
2023/10/10 11:56:51;;;;;;;;;;;;;;;;;;4986107;28;90651;-65
2023/10/10 11:59:17;;;;;;;;;;;;;;;;;;4986802;28;89569;-65
2023/10/10 12:01:54;;;;;;;;;;;;;;;;;;4987028;28;89092;-66
2023/10/10 12:04:32;;;;;;;;;;;;;;;;;;4985286;28;92551;-66
2023/10/10 12:06:59;;;;;;;;;;;;;;;;;;4988461;28;90429;-65
2023/10/10 12:09:26;;;;;;;;;;;;;;;;;;4986866;28;89427;-66
2023/10/10 12:11:58;;;;;;;;;;;;;;;;;;4990757;28;90172;-65
2023/10/10 12:14:24;;;;;;;;;;;;;;;;;;4986872;28;89566;-65
2023/10/10 12:16:53;;;;;;;;;;;;;;;;;;4987432;28;89822;-66
2023/10/10 12:19:18;;;;;;;;;;;;;;;;;;4986703;28;90531;-66
2023/10/10 12:21:44;;;;;;;;;;;;;;;;;;4986881;28;89946;-66
2023/10/10 12:24:09;;;;;;;;;;;;;;;;;;4986448;28;89521;-69
2023/10/10 12:26:39;;;;;;;;;;;;;;;;;;4990054;28;91229;-66
2023/10/10 12:29:04;;;;;;;;;;;;;;;;;;4985201;28;89796;-66
2023/10/10 12:31:33;;;;;;;;;;;;;;;;;;4985292;28;90978;-67
2023/10/10 12:34:00;;;;;;;;;;;;;;;;;;4985259;28;90073;-68
2023/10/10 12:36:32;;;;;;;;;;;;;;;;;;4981623;28;90698;-66
2023/10/10 12:38:59;;;;;;;;;;;;;;;;;;4984442;28;89570;-66
2023/10/10 12:41:24;;;;;;;;;;;;;;;;;;4985786;28;89559;-66
2023/10/10 12:43:50;;;;;;;;;;;;;;;;;;4987806;28;89646;-66
2023/10/10 12:46:17;;;;;;;;;;;;;;;;;;4986837;28;89295;-66
2023/10/10 12:48:46;;;;;;;;;;;;;;;;;;4990557;28;89853;-67
2023/10/10 12:51:12;;;;;;;;;;;;;;;;;;4987219;28;92051;-66
2023/10/10 12:53:42;;;;;;;;;;;;;;;;;;4986126;28;89505;-66
2023/10/10 12:56:16;;;;;;;;;;;;;;;;;;4986975;28;90680;-66
2023/10/10 12:58:51;;;;;;;;;;;;;;;;;;4986969;28;89595;-66
2023/10/10 13:01:22;;;;;;;;;;;;;;;;;;4986273;28;89042;-66
2023/10/10 13:03:48;;;;;;;;;;;;;;;;;;4982886;28;89695;-65
2023/10/10 13:06:14;;;;;;;;;;;;;;;;;;4983669;28;89912;-66
2023/10/10 13:08:46;;;;;;;;;;;;;;;;;;4985928;28;89264;-65
2023/10/10 13:11:14;;;;;;;;;;;;;;;;;;4988441;28;91306;-66
2023/10/10 13:13:45;;;;;;;;;;;;;;;;;;4985877;28;89739;-66
2023/10/10 13:19:05;;;;;;;;;;;;;;;;;;4986449;28;88949;-65
2023/10/10 13:21:31;;;;;;;;;;;;;;;;;;4986500;28;89424;-65
2023/10/10 13:23:56;;;;;;;;;;;;;;;;;;4986355;28;89800;-66
2023/10/10 13:26:21;;;;;;;;;;;;;;;;;;4986391;28;89322;-66
2023/10/10 13:28:46;;;;;;;;;;;;;;;;;;4986125;28;91431;-65
2023/10/10 13:31:13;;;;;;;;;;;;;;;;;;5002672;28;92687;-65
2023/10/10 13:33:39;;;;;;;;;;;;;;;;;;4989515;28;89497;-66
2023/10/10 13:36:04;;;;;;;;;;;;;;;;;;4985791;28;90655;-65
2023/10/10 13:38:29;;;;;;;;;;;;;;;;;;4986595;28;89786;-65
2023/10/10 13:40:55;;;;;;;;;;;;;;;;;;4986814;28;89042;-65
2023/10/10 13:43:20;;;;;;;;;;;;;;;;;;4987508;28;89645;-65
2023/10/10 13:45:48;;;;;;;;;;;;;;;;;;4985909;28;89894;-67
2023/10/10 13:48:13;;;;;;;;;;;;;;;;;;4988311;28;89707;-64
2023/10/10 13:50:42;;;;;;;;;;;;;;;;;;4985837;28;89456;-65
2023/10/10 13:53:10;;;;;;;;;;;;;;;;;;4985434;28;89166;-66
2023/10/10 13:55:38;;;;;;;;;;;;;;;;;;4980668;28;89553;-67
2023/10/10 13:58:07;;;;;;;;;;;;;;;;;;4982505;28;89835;-66
2023/10/10 14:00:34;;;;;;;;;;;;;;;;;;4977747;28;93826;-68
2023/10/10 14:03:05;;;;;;;;;;;;;;;;;;4984081;28;89552;-66
2023/10/10 14:05:34;;;;;;;;;;;;;;;;;;4977202;28;90378;-70
2023/10/10 14:08:02;;;;;;;;;;;;;;;;;;4985978;28;89458;-65
2023/10/10 14:10:33;;;;;;;;;;;;;;;;;;4985974;28;90340;-66
2023/10/10 14:13:11;;;;;;;;;;;;;;;;;;4984269;28;89182;-66
2023/10/10 14:15:36;;;;;;;;;;;;;;;;;;4983519;28;90139;-66
2023/10/10 14:18:01;;;;;;;;;;;;;;;;;;4988079;28;92167;-65
2023/10/10 14:20:26;;;;;;;;;;;;;;;;;;4987198;28;89350;-66
2023/10/10 14:22:52;;;;;;;;;;;;;;;;;;4986124;28;89921;-66
2023/10/10 14:25:17;;;;;;;;;;;;;;;;;;4987125;28;89207;-65
2023/10/10 14:27:43;;;;;;;;;;;;;;;;;;4986147;28;89454;-66
2023/10/10 14:30:20;;;;;;;;;;;;;;;;;;4984212;28;92224;-66
2023/10/10 14:32:46;;;;;;;;;;;;;;;;;;4984366;28;90431;-67
2023/10/10 14:35:12;;;;;;;;;;;;;;;;;;4984933;28;89573;-66
2023/10/10 14:37:37;;;;;;;;;;;;;;;;;;4985959;28;90456;-67
2023/10/10 14:40:08;;;;;;;;;;;;;;;;;;4984862;28;89634;-71
2023/10/10 14:42:33;;;;;;;;;;;;;;;;;;4984505;28;90648;-69
2023/10/10 14:44:59;;;;;;;;;;;;;;;;;;4984795;28;89911;-68
2023/10/10 14:47:24;;;;;;;;;;;;;;;;;;4987263;28;90620;-67
2023/10/10 14:49:56;;;;;;;;;;;;;;;;;;4985805;28;90417;-68
2023/10/10 14:52:21;;;;;;;;;;;;;;;;;;4987389;28;90284;-67
2023/10/10 14:54:48;;;;;;;;;;;;;;;;;;4984673;28;89626;-67
2023/10/10 14:57:23;;;;;;;;;;;;;;;;;;4984906;28;90201;-68
2023/10/10 14:59:49;;;;;;;;;;;;;;;;;;4987497;28;89674;-66
2023/10/10 15:02:16;;;;;;;;;;;;;;;;;;4984213;28;90274;-67
2023/10/10 15:04:41;;;;;;;;;;;;;;;;;;4985535;28;90384;-67
2023/10/10 15:07:06;;;;;;;;;;;;;;;;;;4983471;28;89671;-66
2023/10/10 15:09:35;;;;;;;;;;;;;;;;;;4985130;28;89510;-66
2023/10/10 15:12:01;;;;;;;;;;;;;;;;;;4983278;28;90207;-66
2023/10/10 15:14:27;;;;;;;;;;;;;;;;;;4985674;28;89655;-71
2023/10/10 15:16:52;;;;;;;;;;;;;;;;;;4991140;28;89560;-70
2023/10/10 15:19:17;;;;;;;;;;;;;;;;;;4989631;28;89147;-70
2023/10/10 15:21:47;;;;;;;;;;;;;;;;;;4993283;28;89773;-69
2023/10/10 15:24:14;;;;;;;;;;;;;;;;;;4988822;28;90126;-70
2023/10/10 15:26:40;;;;;;;;;;;;;;;;;;4989828;28;89514;-70
2023/10/10 15:29:06;;;;;;;;;;;;;;;;;;4991453;28;90951;-68
2023/10/10 15:31:31;;;;;;;;;;;;;;;;;;4990033;28;90616;-69
2023/10/10 15:33:57;;;;;;;;;;;;;;;;;;4991516;28;89526;-68
2023/10/10 15:36:30;;;;;;;;;;;;;;;;;;4989859;28;90620;-71
2023/10/10 15:39:06;;;;;;;;;;;;;;;;;;4991954;28;89491;-68
2023/10/10 15:41:32;;;;;;;;;;;;;;;;;;4990022;28;89994;-68
2023/10/10 15:44:02;;;;;;;;;;;;;;;;;;4993273;28;90828;-67
2023/10/10 15:46:27;;;;;;;;;;;;;;;;;;4988708;28;89477;-66
2023/10/10 15:48:53;;;;;;;;;;;;;;;;;;4989445;28;89777;-67
2023/10/10 15:51:21;;;;;;;;;;;;;;;;;;4988223;28;90031;-67
2023/10/10 15:53:47;;;;;;;;;;;;;;;;;;4990751;28;89587;-67
2023/10/10 15:56:17;;;;;;;;;;;;;;;;;;4989313;28;89630;-66
2023/10/10 15:58:52;;;;;;;;;;;;;;;;;;4989853;28;90541;-67
2023/10/10 16:01:30;;;;;;;;;;;;;;;;;;4987534;28;89555;-67
2023/10/10 16:04:00;;;;;;;;;;;;;;;;;;4989167;28;89452;-67
2023/10/10 16:06:26;;;;;;;;;;;;;;;;;;4991707;28;90066;-67
2023/10/10 16:08:52;;;;;;;;;;;;;;;;;;4990332;28;89661;-66
2023/10/10 16:11:21;;;;;;;;;;;;;;;;;;4989706;28;89583;-66
2023/10/10 16:13:48;;;;;;;;;;;;;;;;;;4991500;28;90089;-67
2023/10/10 16:16:13;;;;;;;;;;;;;;;;;;4989008;28;90876;-66
2023/10/10 16:18:40;;;;;;;;;;;;;;;;;;4988841;28;90083;-66
2023/10/10 16:21:08;;;;;;;;;;;;;;;;;;4989745;28;89221;-70
2023/10/10 16:23:34;;;;;;;;;;;;;;;;;;4988688;28;89516;-66
2023/10/10 16:26:04;;;;;;;;;;;;;;;;;;4985908;28;90161;-66
2023/10/10 16:28:29;;;;;;;;;;;;;;;;;;4986615;28;89405;-66
2023/10/10 16:30:54;;;;;;;;;;;;;;;;;;4985667;28;90815;-67
2023/10/10 16:33:23;;;;;;;;;;;;;;;;;;4983213;28;90827;-66
2023/10/10 16:35:49;;;;;;;;;;;;;;;;;;4984051;28;90742;-66
2023/10/10 16:38:21;;;;;;;;;;;;;;;;;;4985758;28;89164;-66
2023/10/10 16:40:49;;;;;;;;;;;;;;;;;;4987316;28;89518;-66
2023/10/10 16:43:17;;;;;;;;;;;;;;;;;;4983153;28;90710;-66
2023/10/10 16:45:43;;;;;;;;;;;;;;;;;;4980734;28;90337;-66
2023/10/10 16:48:08;;;;;;;;;;;;;;;;;;4988032;28;90590;-66
2023/10/10 16:50:34;;;;;;;;;;;;;;;;;;4985612;28;90899;-66
2023/10/10 16:52:59;;;;;;;;;;;;;;;;;;4986212;28;89633;-68
2023/10/10 16:55:24;;;;;;;;;;;;;;;;;;4986554;28;90566;-66
2023/10/10 16:57:49;;;;;;;;;;;;;;;;;;4986792;28;90448;-66
2023/10/10 17:00:15;;;;;;;;;;;;;;;;;;4986274;28;89591;-66
2023/10/10 17:02:41;;;;;;;;;;;;;;;;;;4986331;28;90145;-67
2023/10/10 17:05:11;;;;;;;;;;;;;;;;;;4986300;28;89352;-66
2023/10/10 17:07:37;;;;;;;;;;;;;;;;;;4986089;28;92077;-66
2023/10/10 17:10:05;;;;;;;;;;;;;;;;;;4988547;28;90804;-66
2023/10/10 17:12:30;;;;;;;;;;;;;;;;;;4986502;28;89664;-66
2023/10/10 17:14:56;;;;;;;;;;;;;;;;;;4984096;28;90805;-66
2023/10/10 17:17:24;;;;;;;;;;;;;;;;;;4985911;28;90145;-67
2023/10/10 17:19:49;;;;;;;;;;;;;;;;;;4986417;28;89711;-66
2023/10/10 17:22:16;;;;;;;;;;;;;;;;;;4984670;28;89918;-66
2023/10/10 17:24:43;;;;;;;;;;;;;;;;;;4986761;28;90804;-66
2023/10/10 17:27:08;;;;;;;;;;;;;;;;;;4987763;28;89903;-66
2023/10/10 17:29:35;;;;;;;;;;;;;;;;;;4990799;28;90390;-66
2023/10/10 17:32:00;;;;;;;;;;;;;;;;;;4989394;28;90311;-65
2023/10/10 17:34:32;;;;;;;;;;;;;;;;;;4986395;28;90236;-65
2023/10/10 17:36:58;;;;;;;;;;;;;;;;;;4986074;28;89955;-66
2023/10/10 17:39:23;;;;;;;;;;;;;;;;;;4986541;28;89233;-65
2023/10/10 17:41:49;;;;;;;;;;;;;;;;;;4987493;28;89553;-65
2023/10/10 17:44:15;;;;;;;;;;;;;;;;;;4986430;28;90038;-65
2023/10/10 17:46:41;;;;;;;;;;;;;;;;;;4986912;28;89609;-66
2023/10/10 17:49:06;;;;;;;;;;;;;;;;;;4987058;28;90076;-65
2023/10/10 17:51:33;;;;;;;;;;;;;;;;;;4985776;28;90352;-65
2023/10/10 17:53:58;;;;;;;;;;;;;;;;;;4989006;28;89168;-68
2023/10/10 17:56:24;;;;;;;;;;;;;;;;;;4985145;28;92441;-71
2023/10/10 17:58:50;;;;;;;;;;;;;;;;;;4986775;28;89123;-69
2023/10/10 18:01:15;;;;;;;;;;;;;;;;;;4986213;28;90070;-67
2023/10/10 18:03:41;;;;;;;;;;;;;;;;;;4986121;28;89720;-70
2023/10/10 18:06:22;;;;;;;;;;;;;;;;;;4983933;28;89570;-66
2023/10/10 18:08:47;;;;;;;;;;;;;;;;;;4986064;28;90281;-67
2023/10/10 18:11:14;;;;;;;;;;;;;;;;;;4989233;28;89355;-66
2023/10/10 18:13:40;;;;;;;;;;;;;;;;;;4987353;28;89884;-66
2023/10/10 18:16:09;;;;;;;;;;;;;;;;;;4988020;28;92138;-66
2023/10/10 18:18:35;;;;;;;;;;;;;;;;;;4985453;28;89118;-69
2023/10/10 18:21:07;;;;;;;;;;;;;;;;;;4985281;28;90396;-67
2023/10/10 18:23:32;;;;;;;;;;;;;;;;;;4980770;28;90147;-67
2023/10/10 18:26:00;;;;;;;;;;;;;;;;;;4983467;28;89171;-67
2023/10/10 18:28:26;;;;;;;;;;;;;;;;;;4985468;28;90733;-67
2023/10/10 18:30:51;;;;;;;;;;;;;;;;;;4989790;28;90333;-66
2023/10/10 18:33:17;;;;;;;;;;;;;;;;;;4985831;28;89505;-66
2023/10/10 18:35:42;;;;;;;;;;;;;;;;;;4985551;28;90229;-66
2023/10/10 18:38:07;;;;;;;;;;;;;;;;;;4987988;28;89710;-66
2023/10/10 18:40:39;;;;;;;;;;;;;;;;;;4986059;28;90887;-66
2023/10/10 18:43:06;;;;;;;;;;;;;;;;;;4984106;28;89435;-67
2023/10/10 18:45:32;;;;;;;;;;;;;;;;;;4984588;28;91944;-69
2023/10/10 18:47:58;;;;;;;;;;;;;;;;;;4983135;28;90470;-67
2023/10/10 18:50:24;;;;;;;;;;;;;;;;;;4985892;28;90264;-68
2023/10/10 18:52:50;;;;;;;;;;;;;;;;;;4984343;28;89209;-67
2023/10/10 18:55:19;;;;;;;;;;;;;;;;;;4984722;28;89837;-67
2023/10/10 18:57:48;;;;;;;;;;;;;;;;;;4987923;28;90241;-68
2023/10/10 19:00:15;;;;;;;;;;;;;;;;;;4984739;28;90717;-67
2023/10/10 19:02:44;;;;;;;;;;;;;;;;;;4984617;28;89915;-67
2023/10/10 19:05:09;;;;;;;;;;;;;;;;;;4983353;28;89841;-66
2023/10/10 19:07:36;;;;;;;;;;;;;;;;;;4985993;28;89686;-66
2023/10/10 19:10:02;;;;;;;;;;;;;;;;;;4985342;28;89814;-66
2023/10/10 19:12:28;;;;;;;;;;;;;;;;;;4984770;28;89105;-65
2023/10/10 19:14:55;;;;;;;;;;;;;;;;;;4985615;28;90657;-66
2023/10/10 19:17:20;;;;;;;;;;;;;;;;;;4984480;28;89117;-67
2023/10/10 19:19:45;;;;;;;;;;;;;;;;;;4987646;28;89201;-66
2023/10/10 19:22:10;;;;;;;;;;;;;;;;;;4986399;28;90089;-67
2023/10/10 19:24:38;;;;;;;;;;;;;;;;;;4984822;28;89948;-66
2023/10/10 19:27:10;;;;;;;;;;;;;;;;;;4984053;28;89829;-67